sensor_id;sensor_type;location;lat;lon;timestamp;pressure;altitude;pressure_sealevel;temperature;humidity
18819;BME280;9537;45.594;9.294;2023-02-18T00:00:37;100911.69;;;7.13;77.65
18819;BME280;9537;45.594;9.294;2023-02-18T00:01:40;100912.63;;;7.12;77.12
18819;BME280;9537;45.594;9.294;2023-02-18T00:02:43;100913.59;;;7.11;77.11
18819;BME280;9537;45.594;9.294;2023-02-18T00:03:46;100905.84;;;7.10;77.63
18819;BME280;9537;45.594;9.294;2023-02-18T00:04:48;100909.16;;;7.12;77.63
18819;BME280;9537;45.594;9.294;2023-02-18T00:05:51;100913.34;;;7.14;77.89
18819;BME280;9537;45.594;9.294;2023-02-18T00:06:53;100905.22;;;7.17;78.41
18819;BME280;9537;45.594;9.294;2023-02-18T00:07:55;100909.41;;;7.20;78.40
18819;BME280;9537;45.594;9.294;2023-02-18T00:08:55;100904.88;;;7.22;78.48
18819;BME280;9537;45.594;9.294;2023-02-18T00:09:59;100910.13;;;7.22;77.15
18819;BME280;9537;45.594;9.294;2023-02-18T00:11:00;100914.56;;;7.21;77.08
18819;BME280;9537;45.594;9.294;2023-02-18T00:12:02;100905.94;;;7.19;76.80
18819;BME280;9537;45.594;9.294;2023-02-18T00:13:03;100903.31;;;7.19;77.09
18819;BME280;9537;45.594;9.294;2023-02-18T00:14:09;100902.34;;;7.20;76.30
18819;BME280;9537;45.594;9.294;2023-02-18T00:15:11;100903.78;;;7.25;77.35
18819;BME280;9537;45.594;9.294;2023-02-18T00:16:13;100896.84;;;7.23;76.37
18819;BME280;9537;45.594;9.294;2023-02-18T00:17:14;100893.53;;;7.21;76.06
18819;BME280;9537;45.594;9.294;2023-02-18T00:18:17;100897.22;;;7.19;76.38
18819;BME280;9537;45.594;9.294;2023-02-18T00:19:20;100889.34;;;7.19;77.07
18819;BME280;9537;45.594;9.294;2023-02-18T00:20:22;100893.78;;;7.18;76.67
18819;BME280;9537;45.594;9.294;2023-02-18T00:21:24;100896.75;;;7.14;76.75
18819;BME280;9537;45.594;9.294;2023-02-18T00:22:26;100893.03;;;7.16;77.32
18819;BME280;9537;45.594;9.294;2023-02-18T00:23:26;100892.22;;;7.16;77.03
18819;BME280;9537;45.594;9.294;2023-02-18T00:24:28;100891.00;;;7.09;77.18
18819;BME280;9537;45.594;9.294;2023-02-18T00:25:29;100894.59;;;7.08;77.57
18819;BME280;9537;45.594;9.294;2023-02-18T00:26:32;100895.31;;;7.10;76.66
18819;BME280;9537;45.594;9.294;2023-02-18T00:27:33;100897.00;;;7.11;77.10
18819;BME280;9537;45.594;9.294;2023-02-18T00:28:35;100896.03;;;7.12;76.89
18819;BME280;9537;45.594;9.294;2023-02-18T00:29:36;100895.19;;;7.11;76.56
18819;BME280;9537;45.594;9.294;2023-02-18T00:30:39;100889.94;;;7.11;77.09
18819;BME280;9537;45.594;9.294;2023-02-18T00:31:40;100892.81;;;7.08;77.10
18819;BME280;9537;45.594;9.294;2023-02-18T00:32:42;100892.91;;;7.07;76.42
18819;BME280;9537;45.594;9.294;2023-02-18T00:33:44;100892.31;;;7.03;76.76
18819;BME280;9537;45.594;9.294;2023-02-18T00:34:46;100888.03;;;7.02;76.30
18819;BME280;9537;45.594;9.294;2023-02-18T00:35:47;100882.78;;;7.02;77.10
18819;BME280;9537;45.594;9.294;2023-02-18T00:36:49;100877.78;;;6.99;75.97
18819;BME280;9537;45.594;9.294;2023-02-18T00:37:51;100875.25;;;6.97;76.32
18819;BME280;9537;45.594;9.294;2023-02-18T00:38:55;100875.25;;;6.97;76.39
18819;BME280;9537;45.594;9.294;2023-02-18T00:39:56;100873.00;;;6.93;77.10
18819;BME280;9537;45.594;9.294;2023-02-18T00:40:59;100870.84;;;6.87;77.07
18819;BME280;9537;45.594;9.294;2023-02-18T00:42:00;100872.16;;;6.81;77.25
18819;BME280;9537;45.594;9.294;2023-02-18T00:43:02;100874.16;;;6.77;77.28
18819;BME280;9537;45.594;9.294;2023-02-18T00:44:03;100874.16;;;6.77;77.27
18819;BME280;9537;45.594;9.294;2023-02-18T00:45:06;100875.97;;;6.77;77.80
18819;BME280;9537;45.594;9.294;2023-02-18T00:46:08;100876.56;;;6.81;77.12
18819;BME280;9537;45.594;9.294;2023-02-18T00:47:10;100875.13;;;6.76;77.31
18819;BME280;9537;45.594;9.294;2023-02-18T00:48:11;100873.34;;;6.77;77.78
18819;BME280;9537;45.594;9.294;2023-02-18T00:49:15;100875.13;;;6.76;77.88
18819;BME280;9537;45.594;9.294;2023-02-18T00:50:16;100874.53;;;6.73;78.12
18819;BME280;9537;45.594;9.294;2023-02-18T00:51:18;100878.97;;;6.72;78.08
18819;BME280;9537;45.594;9.294;2023-02-18T00:52:19;100870.84;;;6.75;79.03
18819;BME280;9537;45.594;9.294;2023-02-18T00:53:21;100874.31;;;6.76;79.39
18819;BME280;9537;45.594;9.294;2023-02-18T00:54:23;100864.63;;;6.76;79.66
18819;BME280;9537;45.594;9.294;2023-02-18T00:55:25;100866.78;;;6.71;79.17
18819;BME280;9537;45.594;9.294;2023-02-18T00:56:26;100866.91;;;6.70;79.34
18819;BME280;9537;45.594;9.294;2023-02-18T00:57:28;100860.69;;;6.71;78.98
18819;BME280;9537;45.594;9.294;2023-02-18T00:58:29;100863.91;;;6.74;79.10
18819;BME280;9537;45.594;9.294;2023-02-18T00:59:31;100861.50;;;6.71;79.46
18819;BME280;9537;45.594;9.294;2023-02-18T01:00:33;100859.84;;;6.70;78.45
18819;BME280;9537;45.594;9.294;2023-02-18T01:01:35;100867.25;;;6.65;78.33
18819;BME280;9537;45.594;9.294;2023-02-18T01:02:36;100861.41;;;6.62;78.34
18819;BME280;9537;45.594;9.294;2023-02-18T01:03:39;100850.75;;;6.63;78.28
18819;BME280;9537;45.594;9.294;2023-02-18T01:04:42;100857.94;;;6.61;78.18
18819;BME280;9537;45.594;9.294;2023-02-18T01:05:44;100847.69;;;6.58;78.62
18819;BME280;9537;45.594;9.294;2023-02-18T01:06:45;100848.75;;;6.56;78.77
18819;BME280;9537;45.594;9.294;2023-02-18T01:07:47;100854.09;;;6.54;78.34
18819;BME280;9537;45.594;9.294;2023-02-18T01:08:48;100856.13;;;6.50;78.18
18819;BME280;9537;45.594;9.294;2023-02-18T01:09:50;100861.50;;;6.49;77.58
18819;BME280;9537;45.594;9.294;2023-02-18T01:10:53;100859.69;;;6.49;78.02
18819;BME280;9537;45.594;9.294;2023-02-18T01:11:55;100863.19;;;6.50;77.78
18819;BME280;9537;45.594;9.294;2023-02-18T01:12:56;100856.47;;;6.46;78.73
18819;BME280;9537;45.594;9.294;2023-02-18T01:13:58;100861.13;;;6.42;78.80
18819;BME280;9537;45.594;9.294;2023-02-18T01:14:59;100855.75;;;6.44;78.42
18819;BME280;9537;45.594;9.294;2023-02-18T01:16:02;100856.72;;;6.43;78.35
18819;BME280;9537;45.594;9.294;2023-02-18T01:17:03;100855.75;;;6.44;79.18
18819;BME280;9537;45.594;9.294;2023-02-18T01:18:05;100852.28;;;6.43;78.43
18819;BME280;9537;45.594;9.294;2023-02-18T01:19:07;100856.59;;;6.44;78.29
18819;BME280;9537;45.594;9.294;2023-02-18T01:20:12;100855.75;;;6.44;77.90
18819;BME280;9537;45.594;9.294;2023-02-18T01:21:14;100857.66;;;6.42;78.58
18819;BME280;9537;45.594;9.294;2023-02-18T01:22:16;100856.72;;;6.43;78.38
18819;BME280;9537;45.594;9.294;2023-02-18T01:23:17;100856.72;;;6.43;77.89
18819;BME280;9537;45.594;9.294;2023-02-18T01:24:19;100867.09;;;6.44;77.92
18819;BME280;9537;45.594;9.294;2023-02-18T01:25:20;100857.66;;;6.42;77.29
18819;BME280;9537;45.594;9.294;2023-02-18T01:26:22;100856.84;;;6.41;77.11
18819;BME280;9537;45.594;9.294;2023-02-18T01:27:23;100857.78;;;6.40;77.19
18819;BME280;9537;45.594;9.294;2023-02-18T01:28:25;100851.94;;;6.37;76.57
18819;BME280;9537;45.594;9.294;2023-02-18T01:29:26;100858.25;;;6.34;77.59
18819;BME280;9537;45.594;9.294;2023-02-18T01:30:28;100864.56;;;6.31;77.12
18819;BME280;9537;45.594;9.294;2023-02-18T01:31:29;100866.22;;;6.21;77.55
18819;BME280;9537;45.594;9.294;2023-02-18T01:32:31;100860.34;;;6.18;77.57
18819;BME280;9537;45.594;9.294;2023-02-18T01:33:32;100863.69;;;6.20;77.19
18819;BME280;9537;45.594;9.294;2023-02-18T01:34:34;100861.19;;;6.18;78.17
18819;BME280;9537;45.594;9.294;2023-02-18T01:35:38;100857.63;;;6.19;78.23
18819;BME280;9537;45.594;9.294;2023-02-18T01:36:40;100853.66;;;6.14;78.00
18819;BME280;9537;45.594;9.294;2023-02-18T01:37:42;100857.25;;;6.13;78.65
18819;BME280;9537;45.594;9.294;2023-02-18T01:38:44;100856.63;;;6.09;78.72
18819;BME280;9537;45.594;9.294;2023-02-18T01:39:45;100857.47;;;6.09;78.35
18819;BME280;9537;45.594;9.294;2023-02-18T01:40:49;100843.63;;;6.07;78.41
18819;BME280;9537;45.594;9.294;2023-02-18T01:41:51;100847.56;;;6.02;78.44
18819;BME280;9537;45.594;9.294;2023-02-18T01:42:53;100844.94;;;6.02;78.01
18819;BME280;9537;45.594;9.294;2023-02-18T01:44:12;100853.72;;;6.01;77.71
18819;BME280;9537;45.594;9.294;2023-02-18T01:45:55;100849.44;;;6.00;78.81
18819;BME280;9537;45.594;9.294;2023-02-18T01:46:57;100851.09;;;6.01;78.37
18819;BME280;9537;45.594;9.294;2023-02-18T01:48:00;100846.00;;;5.99;78.67
18819;BME280;9537;45.594;9.294;2023-02-18T01:49:02;100844.09;;;6.01;78.45
18819;BME280;9537;45.594;9.294;2023-02-18T01:50:05;100841.72;;;5.98;78.61
18819;BME280;9537;45.594;9.294;2023-02-18T01:51:10;100842.63;;;5.97;78.89
18819;BME280;9537;45.594;9.294;2023-02-18T01:52:15;100842.03;;;5.94;78.05
18819;BME280;9537;45.594;9.294;2023-02-18T01:53:20;100837.72;;;5.93;78.61
18819;BME280;9537;45.594;9.294;2023-02-18T01:54:27;100839.72;;;5.89;78.73
18819;BME280;9537;45.594;9.294;2023-02-18T01:55:30;100840.44;;;5.91;78.57
18819;BME280;9537;45.594;9.294;2023-02-18T01:56:34;100844.84;;;5.91;78.76
18819;BME280;9537;45.594;9.294;2023-02-18T01:57:37;100835.19;;;5.91;78.90
18819;BME280;9537;45.594;9.294;2023-02-18T01:58:38;100836.25;;;5.88;79.93
18819;BME280;9537;45.594;9.294;2023-02-18T01:59:45;100841.50;;;5.88;78.86
18819;BME280;9537;45.594;9.294;2023-02-18T02:00:48;100833.63;;;5.88;79.48
18819;BME280;9537;45.594;9.294;2023-02-18T02:01:52;100840.06;;;5.84;79.36
18819;BME280;9537;45.594;9.294;2023-02-18T02:02:54;100842.47;;;5.87;78.97
18819;BME280;9537;45.594;9.294;2023-02-18T02:03:55;100838.03;;;5.88;79.02
18819;BME280;9537;45.594;9.294;2023-02-18T02:04:57;100835.09;;;5.93;79.03
18819;BME280;9537;45.594;9.294;2023-02-18T02:05:58;100839.47;;;5.92;78.92
18819;BME280;9537;45.594;9.294;2023-02-18T02:07:02;100831.63;;;5.92;78.37
18819;BME280;9537;45.594;9.294;2023-02-18T02:08:04;100825.53;;;5.92;78.12
18819;BME280;9537;45.594;9.294;2023-02-18T02:09:10;100835.19;;;5.91;78.16
18819;BME280;9537;45.594;9.294;2023-02-18T02:10:13;100832.72;;;5.90;78.17
18819;BME280;9537;45.594;9.294;2023-02-18T02:11:23;100829.34;;;5.87;77.88
18819;BME280;9537;45.594;9.294;2023-02-18T02:12:37;100827.88;;;5.83;78.43
18819;BME280;9537;45.594;9.294;2023-02-18T02:13:53;100827.78;;;5.85;77.96
18819;BME280;9537;45.594;9.294;2023-02-18T02:15:10;100831.97;;;5.87;77.91
18819;BME280;9537;45.594;9.294;2023-02-18T02:16:21;100835.53;;;5.86;77.82
18819;BME280;9537;45.594;9.294;2023-02-18T02:17:33;100835.75;;;5.83;77.97
18819;BME280;9537;45.594;9.294;2023-02-18T02:18:50;100824.34;;;5.84;77.54
18819;BME280;9537;45.594;9.294;2023-02-18T02:21:53;100831.44;;;5.71;77.75
18819;BME280;9537;45.594;9.294;2023-02-18T02:24:55;100837.41;;;5.73;77.50
18819;BME280;9537;45.594;9.294;2023-02-18T02:28:16;100843.38;;;5.75;78.06
18819;BME280;9537;45.594;9.294;2023-02-18T02:30:00;100838.69;;;5.68;77.99
18819;BME280;9537;45.594;9.294;2023-02-18T02:34:38;100830.53;;;5.59;78.60
18819;BME280;9537;45.594;9.294;2023-02-18T02:35:44;100834.22;;;5.57;78.90
18819;BME280;9537;45.594;9.294;2023-02-18T02:36:52;100824.91;;;5.53;78.97
18819;BME280;9537;45.594;9.294;2023-02-18T02:37:59;100821.34;;;5.54;79.10
18819;BME280;9537;45.594;9.294;2023-02-18T02:39:12;100826.59;;;5.54;78.88
18819;BME280;9537;45.594;9.294;2023-02-18T02:40:22;100825.53;;;5.56;78.65
18819;BME280;9537;45.594;9.294;2023-02-18T02:41:32;100831.59;;;5.57;78.76
18819;BME280;9537;45.594;9.294;2023-02-18T02:42:45;100824.78;;;5.54;78.43
18819;BME280;9537;45.594;9.294;2023-02-18T02:44:01;100825.75;;;5.53;78.06
18819;BME280;9537;45.594;9.294;2023-02-18T02:45:10;100824.09;;;5.52;77.95
18819;BME280;9537;45.594;9.294;2023-02-18T02:46:19;100824.91;;;5.53;78.19
18819;BME280;9537;45.594;9.294;2023-02-18T02:47:26;100820.50;;;5.53;78.49
18819;BME280;9537;45.594;9.294;2023-02-18T02:48:41;100821.56;;;5.51;78.75
18819;BME280;9537;45.594;9.294;2023-02-18T02:49:52;100825.16;;;5.50;79.23
18819;BME280;9537;45.594;9.294;2023-02-18T02:51:04;100818.22;;;5.49;78.70
18819;BME280;9537;45.594;9.294;2023-02-18T02:52:10;100816.88;;;5.43;78.44
18819;BME280;9537;45.594;9.294;2023-02-18T02:53:15;100816.78;;;5.45;78.09
18819;BME280;9537;45.594;9.294;2023-02-18T02:54:21;100816.88;;;5.43;78.64
18819;BME280;9537;45.594;9.294;2023-02-18T02:55:24;100822.47;;;5.38;78.47
18819;BME280;9537;45.594;9.294;2023-02-18T02:56:25;100810.41;;;5.36;78.67
18819;BME280;9537;45.594;9.294;2023-02-18T02:57:46;100808.72;;;5.35;78.79
18819;BME280;9537;45.594;9.294;2023-02-18T02:58:51;100807.19;;;5.32;78.47
18819;BME280;9537;45.594;9.294;2023-02-18T02:59:58;100809.06;;;5.30;79.08
18819;BME280;9537;45.594;9.294;2023-02-18T03:01:19;100809.31;;;5.27;78.29
18819;BME280;9537;45.594;9.294;2023-02-18T03:02:35;100809.53;;;5.24;77.91
18819;BME280;9537;45.594;9.294;2023-02-18T03:05:21;100808.69;;;5.24;77.50
18819;BME280;9537;45.594;9.294;2023-02-18T03:06:42;100813.28;;;5.20;78.11
18819;BME280;9537;45.594;9.294;2023-02-18T03:08:04;100809.84;;;5.19;78.33
18819;BME280;9537;45.594;9.294;2023-02-18T03:09:09;100813.41;;;5.18;78.31
18819;BME280;9537;45.594;9.294;2023-02-18T03:10:25;100811.03;;;5.15;78.50
18819;BME280;9537;45.594;9.294;2023-02-18T03:11:36;100810.38;;;5.12;78.69
18819;BME280;9537;45.594;9.294;2023-02-18T03:12:47;100810.59;;;5.09;78.69
18819;BME280;9537;45.594;9.294;2023-02-18T03:13:59;100802.13;;;5.05;78.62
18819;BME280;9537;45.594;9.294;2023-02-18T03:15:10;100802.13;;;5.05;78.76
18819;BME280;9537;45.594;9.294;2023-02-18T03:16:23;100803.78;;;5.06;78.81
18819;BME280;9537;45.594;9.294;2023-02-18T03:17:29;100804.66;;;5.07;78.57
18819;BME280;9537;45.594;9.294;2023-02-18T03:18:34;100807.50;;;5.04;78.69
18819;BME280;9537;45.594;9.294;2023-02-18T03:19:39;100804.22;;;5.00;79.09
18819;BME280;9537;45.594;9.294;2023-02-18T03:20:49;100806.97;;;4.99;78.96
18819;BME280;9537;45.594;9.294;2023-02-18T03:21:55;100805.28;;;4.97;79.37
18819;BME280;9537;45.594;9.294;2023-02-18T03:22:59;100803.94;;;4.92;78.96
18819;BME280;9537;45.594;9.294;2023-02-18T03:24:08;100805.63;;;4.93;78.79
18819;BME280;9537;45.594;9.294;2023-02-18T03:25:12;100806.47;;;4.93;78.59
18819;BME280;9537;45.594;9.294;2023-02-18T03:26:16;100809.91;;;4.94;78.50
18819;BME280;9537;45.594;9.294;2023-02-18T03:27:22;100813.69;;;4.90;78.39
18819;BME280;9537;45.594;9.294;2023-02-18T03:28:27;100818.81;;;4.91;78.42
18819;BME280;9537;45.594;9.294;2023-02-18T03:29:32;100811.69;;;4.93;78.62
18819;BME280;9537;45.594;9.294;2023-02-18T03:30:38;100813.34;;;4.94;78.08
18819;BME280;9537;45.594;9.294;2023-02-18T03:31:42;100814.00;;;4.98;78.75
18819;BME280;9537;45.594;9.294;2023-02-18T03:32:48;100809.59;;;4.99;78.46
18819;BME280;9537;45.594;9.294;2023-02-18T03:33:54;100813.78;;;5.01;78.20
18819;BME280;9537;45.594;9.294;2023-02-18T03:35:01;100813.44;;;5.06;78.30
18819;BME280;9537;45.594;9.294;2023-02-18T03:36:05;100817.09;;;5.03;77.97
18819;BME280;9537;45.594;9.294;2023-02-18T03:37:08;100810.22;;;5.02;77.78
18819;BME280;9537;45.594;9.294;2023-02-18T03:38:13;100812.44;;;4.95;77.64
18819;BME280;9537;45.594;9.294;2023-02-18T03:39:18;100815.06;;;4.95;78.15
18819;BME280;9537;45.594;9.294;2023-02-18T03:40:21;100817.53;;;4.97;78.10
18819;BME280;9537;45.594;9.294;2023-02-18T03:41:23;100817.25;;;4.89;77.20
18819;BME280;9537;45.594;9.294;2023-02-18T03:42:24;100817.25;;;4.89;77.69
18819;BME280;9537;45.594;9.294;2023-02-18T03:43:28;100820.06;;;4.86;77.82
18819;BME280;9537;45.594;9.294;2023-02-18T03:44:30;100812.34;;;4.84;77.58
18819;BME280;9537;45.594;9.294;2023-02-18T03:45:32;100821.13;;;4.83;78.38
18819;BME280;9537;45.594;9.294;2023-02-18T03:46:34;100818.28;;;4.86;78.43
18819;BME280;9537;45.594;9.294;2023-02-18T03:47:37;100815.66;;;4.86;78.46
18819;BME280;9537;45.594;9.294;2023-02-18T03:48:38;100808.78;;;4.85;78.75
18819;BME280;9537;45.594;9.294;2023-02-18T03:49:40;100813.06;;;4.86;79.15
18819;BME280;9537;45.594;9.294;2023-02-18T03:50:41;100812.00;;;4.89;78.81
18819;BME280;9537;45.594;9.294;2023-02-18T03:51:44;100817.38;;;4.87;79.11
18819;BME280;9537;45.594;9.294;2023-02-18T03:52:45;100814.84;;;4.86;78.69
18819;BME280;9537;45.594;9.294;2023-02-18T03:53:47;100806.28;;;4.84;78.49
18819;BME280;9537;45.594;9.294;2023-02-18T03:54:48;100809.94;;;4.81;78.53
18819;BME280;9537;45.594;9.294;2023-02-18T03:55:50;100811.72;;;4.81;78.79
18819;BME280;9537;45.594;9.294;2023-02-18T03:56:51;100812.56;;;4.81;78.53
18819;BME280;9537;45.594;9.294;2023-02-18T03:57:53;100819.69;;;4.79;78.56
18819;BME280;9537;45.594;9.294;2023-02-18T03:58:54;100810.16;;;4.78;78.81
18819;BME280;9537;45.594;9.294;2023-02-18T03:59:56;100808.16;;;4.69;79.38
18819;BME280;9537;45.594;9.294;2023-02-18T04:00:57;100811.66;;;4.69;79.39
18819;BME280;9537;45.594;9.294;2023-02-18T04:01:59;100813.19;;;4.72;79.98
18819;BME280;9537;45.594;9.294;2023-02-18T04:03:00;100813.91;;;4.74;79.93
18819;BME280;9537;45.594;9.294;2023-02-18T04:04:02;100820.00;;;4.74;79.53
18819;BME280;9537;45.594;9.294;2023-02-18T04:05:04;100814.88;;;4.73;79.55
18819;BME280;9537;45.594;9.294;2023-02-18T04:06:07;100815.09;;;4.70;79.26
18819;BME280;9537;45.594;9.294;2023-02-18T04:07:09;100816.44;;;4.63;79.47
18819;BME280;9537;45.594;9.294;2023-02-18T04:08:11;100822.84;;;4.59;79.07
18819;BME280;9537;45.594;9.294;2023-02-18T04:09:12;100812.25;;;4.60;79.02
18819;BME280;9537;45.594;9.294;2023-02-18T04:10:14;100819.41;;;4.58;78.73
18819;BME280;9537;45.594;9.294;2023-02-18T04:11:15;100817.63;;;4.59;78.10
18819;BME280;9537;45.594;9.294;2023-02-18T04:12:17;100815.00;;;4.59;78.35
18819;BME280;9537;45.594;9.294;2023-02-18T04:13:18;100817.00;;;4.55;77.86
18819;BME280;9537;45.594;9.294;2023-02-18T04:14:20;100817.81;;;4.56;77.63
18819;BME280;9537;45.594;9.294;2023-02-18T04:15:21;100814.06;;;4.47;77.95
18819;BME280;9537;45.594;9.294;2023-02-18T04:16:23;100814.16;;;4.45;78.25
18819;BME280;9537;45.594;9.294;2023-02-18T04:17:24;100811.75;;;4.42;78.26
18819;BME280;9537;45.594;9.294;2023-02-18T04:18:26;100810.91;;;4.42;79.28
18819;BME280;9537;45.594;9.294;2023-02-18T04:19:27;100815.94;;;4.45;79.29
18819;BME280;9537;45.594;9.294;2023-02-18T04:20:29;100817.59;;;4.46;79.08
18819;BME280;9537;45.594;9.294;2023-02-18T04:21:30;100811.53;;;4.45;79.21
18819;BME280;9537;45.594;9.294;2023-02-18T04:22:33;100820.13;;;4.47;79.98
18819;BME280;9537;45.594;9.294;2023-02-18T04:23:35;100817.31;;;4.50;79.76
18819;BME280;9537;45.594;9.294;2023-02-18T04:24:36;100817.19;;;4.52;79.59
18819;BME280;9537;45.594;9.294;2023-02-18T04:25:38;100819.78;;;4.52;79.78
18819;BME280;9537;45.594;9.294;2023-02-18T04:26:39;100817.09;;;4.54;79.09
18819;BME280;9537;45.594;9.294;2023-02-18T04:27:42;100812.91;;;4.51;78.89
18819;BME280;9537;45.594;9.294;2023-02-18T04:28:42;100810.63;;;4.46;79.06
18819;BME280;9537;45.594;9.294;2023-02-18T04:29:44;100808.84;;;4.47;78.96
18819;BME280;9537;45.594;9.294;2023-02-18T04:30:46;100814.06;;;4.47;79.16
18819;BME280;9537;45.594;9.294;2023-02-18T04:31:49;100813.94;;;4.48;79.70
18819;BME280;9537;45.594;9.294;2023-02-18T04:32:50;100813.13;;;4.48;79.64
18819;BME280;9537;45.594;9.294;2023-02-18T04:33:52;100814.69;;;4.50;79.57
18819;BME280;9537;45.594;9.294;2023-02-18T04:34:53;100815.50;;;4.51;79.08
18819;BME280;9537;45.594;9.294;2023-02-18T04:35:55;100814.91;;;4.47;79.05
18819;BME280;9537;45.594;9.294;2023-02-18T04:36:56;100813.22;;;4.46;78.93
18819;BME280;9537;45.594;9.294;2023-02-18T04:38:00;100818.34;;;4.48;78.85
18819;BME280;9537;45.594;9.294;2023-02-18T04:39:01;100815.63;;;4.49;78.47
18819;BME280;9537;45.594;9.294;2023-02-18T04:40:03;100813.72;;;4.51;78.74
18819;BME280;9537;45.594;9.294;2023-02-18T04:41:04;100819.69;;;4.54;78.59
18819;BME280;9537;45.594;9.294;2023-02-18T04:42:06;100823.97;;;4.55;78.22
18819;BME280;9537;45.594;9.294;2023-02-18T04:43:10;100812.81;;;4.53;78.25
18819;BME280;9537;45.594;9.294;2023-02-18T04:44:11;100820.97;;;4.48;78.55
18819;BME280;9537;45.594;9.294;2023-02-18T04:45:12;100819.09;;;4.50;78.72
18819;BME280;9537;45.594;9.294;2023-02-18T04:46:14;100816.78;;;4.45;78.87
18819;BME280;9537;45.594;9.294;2023-02-18T04:47:15;100810.78;;;4.43;78.07
18819;BME280;9537;45.594;9.294;2023-02-18T04:48:17;100818.56;;;4.45;78.42
18819;BME280;9537;45.594;9.294;2023-02-18T04:49:18;100815.09;;;4.44;78.41
18819;BME280;9537;45.594;9.294;2023-02-18T04:50:20;100812.59;;;4.43;78.09
18819;BME280;9537;45.594;9.294;2023-02-18T04:51:22;100820.34;;;4.44;78.31
18819;BME280;9537;45.594;9.294;2023-02-18T04:52:24;100810.31;;;4.38;78.25
18819;BME280;9537;45.594;9.294;2023-02-18T04:53:27;100820.03;;;4.36;78.52
18819;BME280;9537;45.594;9.294;2023-02-18T04:54:29;100811.13;;;4.39;78.50
18819;BME280;9537;45.594;9.294;2023-02-18T04:55:30;100811.88;;;4.41;78.63
18819;BME280;9537;45.594;9.294;2023-02-18T04:56:32;100815.19;;;4.43;78.90
18819;BME280;9537;45.594;9.294;2023-02-18T04:57:33;100814.50;;;4.41;78.85
18819;BME280;9537;45.594;9.294;2023-02-18T04:58:35;100810.91;;;4.42;78.87
18819;BME280;9537;45.594;9.294;2023-02-18T04:59:36;100813.53;;;4.42;79.02
18819;BME280;9537;45.594;9.294;2023-02-18T05:00:38;100817.19;;;4.39;78.70
18819;BME280;9537;45.594;9.294;2023-02-18T05:01:39;100810.38;;;4.37;78.52
18819;BME280;9537;45.594;9.294;2023-02-18T05:02:41;100815.75;;;4.35;78.59
18819;BME280;9537;45.594;9.294;2023-02-18T05:03:42;100813.00;;;4.37;78.25
18819;BME280;9537;45.594;9.294;2023-02-18T05:04:45;100815.41;;;4.27;78.24
18819;BME280;9537;45.594;9.294;2023-02-18T05:05:46;100823.28;;;4.27;78.17
18819;BME280;9537;45.594;9.294;2023-02-18T05:06:48;100818.03;;;4.27;77.95
18819;BME280;9537;45.594;9.294;2023-02-18T05:07:49;100817.09;;;4.28;77.88
18819;BME280;9537;45.594;9.294;2023-02-18T05:08:52;100818.56;;;4.32;78.00
18819;BME280;9537;45.594;9.294;2023-02-18T05:09:53;100813.34;;;4.32;78.47
18819;BME280;9537;45.594;9.294;2023-02-18T05:10:55;100804.75;;;4.30;78.24
18819;BME280;9537;45.594;9.294;2023-02-18T05:11:56;100810.06;;;4.28;78.15
18819;BME280;9537;45.594;9.294;2023-02-18T05:12:58;100818.25;;;4.24;78.35
18819;BME280;9537;45.594;9.294;2023-02-18T05:13:59;100820.31;;;4.19;78.11
18819;BME280;9537;45.594;9.294;2023-02-18T05:15:01;100819.59;;;4.17;77.99
18819;BME280;9537;45.594;9.294;2023-02-18T05:16:03;100826.69;;;4.15;77.91
18819;BME280;9537;45.594;9.294;2023-02-18T05:17:05;100819.69;;;4.15;78.26
18819;BME280;9537;45.594;9.294;2023-02-18T05:18:06;100814.56;;;4.14;78.08
18819;BME280;9537;45.594;9.294;2023-02-18T05:19:09;100811.94;;;4.14;78.51
18819;BME280;9537;45.594;9.294;2023-02-18T05:20:13;100814.69;;;4.12;78.53
18819;BME280;9537;45.594;9.294;2023-02-18T05:21:15;100810.28;;;4.13;78.54
18819;BME280;9537;45.594;9.294;2023-02-18T05:22:16;100811.75;;;4.04;78.65
18819;BME280;9537;45.594;9.294;2023-02-18T05:23:18;100813.81;;;3.99;79.08
18819;BME280;9537;45.594;9.294;2023-02-18T05:24:22;100816.22;;;4.02;78.53
18819;BME280;9537;45.594;9.294;2023-02-18T05:25:24;100811.19;;;3.99;78.51
18819;BME280;9537;45.594;9.294;2023-02-18T05:26:25;100820.00;;;3.98;78.55
18819;BME280;9537;45.594;9.294;2023-02-18T05:27:27;100804.41;;;3.96;78.31
18819;BME280;9537;45.594;9.294;2023-02-18T05:28:28;100809.63;;;3.96;78.31
18819;BME280;9537;45.594;9.294;2023-02-18T05:29:30;100808.38;;;4.02;78.51
18819;BME280;9537;45.594;9.294;2023-02-18T05:30:31;100807.44;;;4.03;78.41
18819;BME280;9537;45.594;9.294;2023-02-18T05:31:33;100810.25;;;4.00;78.77
18819;BME280;9537;45.594;9.294;2023-02-18T05:32:34;100808.47;;;4.00;79.00
18819;BME280;9537;45.594;9.294;2023-02-18T05:33:36;100809.22;;;4.02;79.37
18819;BME280;9537;45.594;9.294;2023-02-18T05:34:37;100819.66;;;4.02;79.27
18819;BME280;9537;45.594;9.294;2023-02-18T05:35:39;100814.44;;;4.02;79.19
18819;BME280;9537;45.594;9.294;2023-02-18T05:36:40;100812.78;;;4.01;78.91
18819;BME280;9537;45.594;9.294;2023-02-18T05:37:42;100819.66;;;4.02;78.85
18819;BME280;9537;45.594;9.294;2023-02-18T05:38:42;100816.31;;;4.00;78.75
18819;BME280;9537;45.594;9.294;2023-02-18T05:39:46;100812.78;;;4.01;78.51
18819;BME280;9537;45.594;9.294;2023-02-18T05:40:47;100811.09;;;4.00;78.59
18819;BME280;9537;45.594;9.294;2023-02-18T05:41:49;100814.66;;;3.99;78.48
18819;BME280;9537;45.594;9.294;2023-02-18T05:42:50;100815.88;;;3.94;78.32
18819;BME280;9537;45.594;9.294;2023-02-18T05:43:52;100820.16;;;3.95;78.64
18819;BME280;9537;45.594;9.294;2023-02-18T05:45:11;100820.09;;;3.96;78.65
18819;BME280;9537;45.594;9.294;2023-02-18T05:46:13;100816.09;;;3.91;78.57
18819;BME280;9537;45.594;9.294;2023-02-18T05:47:14;100819.53;;;3.91;78.70
18819;BME280;9537;45.594;9.294;2023-02-18T05:48:16;100814.44;;;3.90;78.60
18819;BME280;9537;45.594;9.294;2023-02-18T05:49:17;100823.84;;;3.92;78.86
18819;BME280;9537;45.594;9.294;2023-02-18T05:50:19;100828.88;;;3.95;78.47
18819;BME280;9537;45.594;9.294;2023-02-18T05:51:21;100828.13;;;3.93;78.61
18819;BME280;9537;45.594;9.294;2023-02-18T05:52:23;100827.19;;;3.94;78.39
18819;BME280;9537;45.594;9.294;2023-02-18T05:53:24;100829.59;;;3.97;78.54